sensor_id;sensor_type;location;lat;lon;timestamp;P1;durP1;ratioP1;P2;durP2;ratioP2
13943;SDS011;7044;53.286;8.534;2023-10-09T00:00:56;5.47;;;1.70;;
13943;SDS011;7044;53.286;8.534;2023-10-09T00:03:28;4.93;;;1.67;;
13943;SDS011;7044;53.286;8.534;2023-10-09T00:05:56;3.95;;;1.90;;
13943;SDS011;7044;53.286;8.534;2023-10-09T00:08:25;3.67;;;1.90;;
13943;SDS011;7044;53.286;8.534;2023-10-09T00:10:56;4.78;;;2.00;;
13943;SDS011;7044;53.286;8.534;2023-10-09T00:13:24;4.45;;;2.03;;
13943;SDS011;7044;53.286;8.534;2023-10-09T00:15:53;5.38;;;1.80;;
13943;SDS011;7044;53.286;8.534;2023-10-09T00:18:25;3.75;;;1.80;;
13943;SDS011;7044;53.286;8.534;2023-10-09T00:20:54;5.75;;;1.88;;
13943;SDS011;7044;53.286;8.534;2023-10-09T00:23:27;7.10;;;2.20;;
13943;SDS011;7044;53.286;8.534;2023-10-09T00:25:56;2.53;;;1.95;;
13943;SDS011;7044;53.286;8.534;2023-10-09T00:28:36;5.05;;;1.60;;
13943;SDS011;7044;53.286;8.534;2023-10-09T00:31:06;4.10;;;1.65;;
13943;SDS011;7044;53.286;8.534;2023-10-09T00:33:39;2.60;;;1.70;;
13943;SDS011;7044;53.286;8.534;2023-10-09T00:36:06;6.97;;;1.88;;
13943;SDS011;7044;53.286;8.534;2023-10-09T00:38:36;9.85;;;2.17;;
13943;SDS011;7044;53.286;8.534;2023-10-09T00:41:09;2.72;;;1.42;;
13943;SDS011;7044;53.286;8.534;2023-10-09T00:43:37;5.22;;;1.80;;
13943;SDS011;7044;53.286;8.534;2023-10-09T00:46:08;5.50;;;1.85;;
13943;SDS011;7044;53.286;8.534;2023-10-09T00:48:49;8.80;;;2.22;;
13943;SDS011;7044;53.286;8.534;2023-10-09T00:51:18;3.85;;;1.90;;
13943;SDS011;7044;53.286;8.534;2023-10-09T00:53:49;5.22;;;2.00;;
13943;SDS011;7044;53.286;8.534;2023-10-09T00:56:17;4.68;;;1.98;;
13943;SDS011;7044;53.286;8.534;2023-10-09T00:58:54;2.85;;;1.80;;
13943;SDS011;7044;53.286;8.534;2023-10-09T01:01:25;5.75;;;2.03;;
13943;SDS011;7044;53.286;8.534;2023-10-09T01:03:59;2.55;;;1.95;;
13943;SDS011;7044;53.286;8.534;2023-10-09T01:06:35;3.22;;;1.65;;
13943;SDS011;7044;53.286;8.534;2023-10-09T01:09:09;10.85;;;2.17;;
13943;SDS011;7044;53.286;8.534;2023-10-09T01:11:39;3.67;;;1.77;;
13943;SDS011;7044;53.286;8.534;2023-10-09T01:14:28;5.00;;;2.35;;
13943;SDS011;7044;53.286;8.534;2023-10-09T01:16:56;6.53;;;2.40;;
13943;SDS011;7044;53.286;8.534;2023-10-09T01:19:25;6.35;;;2.10;;
13943;SDS011;7044;53.286;8.534;2023-10-09T01:21:53;5.93;;;2.53;;
13943;SDS011;7044;53.286;8.534;2023-10-09T01:24:21;4.90;;;2.67;;
13943;SDS011;7044;53.286;8.534;2023-10-09T01:26:51;5.78;;;2.25;;
13943;SDS011;7044;53.286;8.534;2023-10-09T01:29:19;7.72;;;2.05;;
13943;SDS011;7044;53.286;8.534;2023-10-09T01:31:48;6.50;;;2.17;;
13943;SDS011;7044;53.286;8.534;2023-10-09T01:34:21;4.78;;;2.38;;
13943;SDS011;7044;53.286;8.534;2023-10-09T01:37:03;5.75;;;2.03;;
13943;SDS011;7044;53.286;8.534;2023-10-09T01:39:38;5.60;;;2.08;;
13943;SDS011;7044;53.286;8.534;2023-10-09T01:42:06;7.57;;;2.20;;
13943;SDS011;7044;53.286;8.534;2023-10-09T01:44:35;6.30;;;1.98;;
13943;SDS011;7044;53.286;8.534;2023-10-09T01:47:08;6.55;;;2.10;;
13943;SDS011;7044;53.286;8.534;2023-10-09T01:49:39;4.50;;;2.10;;
13943;SDS011;7044;53.286;8.534;2023-10-09T01:52:08;4.88;;;1.73;;
13943;SDS011;7044;53.286;8.534;2023-10-09T01:54:39;7.22;;;2.10;;
13943;SDS011;7044;53.286;8.534;2023-10-09T01:57:07;6.13;;;2.33;;
13943;SDS011;7044;53.286;8.534;2023-10-09T01:59:38;10.55;;;2.35;;
13943;SDS011;7044;53.286;8.534;2023-10-09T02:02:08;4.82;;;2.05;;
13943;SDS011;7044;53.286;8.534;2023-10-09T02:04:49;4.70;;;1.98;;
13943;SDS011;7044;53.286;8.534;2023-10-09T02:07:16;7.32;;;2.42;;
13943;SDS011;7044;53.286;8.534;2023-10-09T02:09:49;5.18;;;2.13;;
13943;SDS011;7044;53.286;8.534;2023-10-09T02:12:19;5.03;;;2.53;;
13943;SDS011;7044;53.286;8.534;2023-10-09T02:14:46;7.32;;;2.08;;
13943;SDS011;7044;53.286;8.534;2023-10-09T02:17:13;4.28;;;2.38;;
13943;SDS011;7044;53.286;8.534;2023-10-09T02:19:44;4.65;;;1.90;;
13943;SDS011;7044;53.286;8.534;2023-10-09T02:22:15;4.40;;;2.58;;
13943;SDS011;7044;53.286;8.534;2023-10-09T02:24:43;3.97;;;2.03;;
13943;SDS011;7044;53.286;8.534;2023-10-09T02:27:24;4.85;;;2.35;;
13943;SDS011;7044;53.286;8.534;2023-10-09T02:30:12;6.47;;;2.55;;
13943;SDS011;7044;53.286;8.534;2023-10-09T02:32:52;3.75;;;2.33;;
13943;SDS011;7044;53.286;8.534;2023-10-09T02:35:24;7.22;;;2.22;;
13943;SDS011;7044;53.286;8.534;2023-10-09T02:38:04;3.75;;;2.20;;
13943;SDS011;7044;53.286;8.534;2023-10-09T02:40:35;4.20;;;2.33;;
13943;SDS011;7044;53.286;8.534;2023-10-09T02:43:08;3.90;;;2.10;;
13943;SDS011;7044;53.286;8.534;2023-10-09T02:45:42;8.18;;;2.50;;
13943;SDS011;7044;53.286;8.534;2023-10-09T02:48:15;5.15;;;2.60;;
13943;SDS011;7044;53.286;8.534;2023-10-09T02:50:44;5.05;;;2.13;;
13943;SDS011;7044;53.286;8.534;2023-10-09T02:53:11;4.30;;;2.20;;
13943;SDS011;7044;53.286;8.534;2023-10-09T02:55:43;4.15;;;2.22;;
13943;SDS011;7044;53.286;8.534;2023-10-09T02:58:28;5.03;;;2.45;;
13943;SDS011;7044;53.286;8.534;2023-10-09T03:00:57;5.60;;;2.47;;
13943;SDS011;7044;53.286;8.534;2023-10-09T03:03:24;4.57;;;1.90;;
13943;SDS011;7044;53.286;8.534;2023-10-09T03:05:52;8.75;;;2.53;;
13943;SDS011;7044;53.286;8.534;2023-10-09T03:08:18;7.25;;;2.95;;
13943;SDS011;7044;53.286;8.534;2023-10-09T03:10:45;4.85;;;2.50;;
13943;SDS011;7044;53.286;8.534;2023-10-09T03:13:13;6.88;;;2.83;;
13943;SDS011;7044;53.286;8.534;2023-10-09T03:15:45;3.90;;;2.50;;
13943;SDS011;7044;53.286;8.534;2023-10-09T03:18:13;5.18;;;2.53;;
13943;SDS011;7044;53.286;8.534;2023-10-09T03:20:40;7.00;;;2.45;;
13943;SDS011;7044;53.286;8.534;2023-10-09T03:23:09;7.30;;;2.72;;
13943;SDS011;7044;53.286;8.534;2023-10-09T03:25:39;2.35;;;2.15;;
13943;SDS011;7044;53.286;8.534;2023-10-09T03:28:10;3.22;;;2.30;;
13943;SDS011;7044;53.286;8.534;2023-10-09T03:30:37;3.38;;;2.50;;
13943;SDS011;7044;53.286;8.534;2023-10-09T03:33:10;4.70;;;2.72;;
13943;SDS011;7044;53.286;8.534;2023-10-09T03:35:38;5.55;;;2.55;;
13943;SDS011;7044;53.286;8.534;2023-10-09T03:38:04;7.13;;;2.42;;
13943;SDS011;7044;53.286;8.534;2023-10-09T03:40:37;9.85;;;2.78;;
13943;SDS011;7044;53.286;8.534;2023-10-09T03:43:07;6.57;;;2.75;;
13943;SDS011;7044;53.286;8.534;2023-10-09T03:45:35;9.90;;;3.10;;
13943;SDS011;7044;53.286;8.534;2023-10-09T03:48:03;7.93;;;2.67;;
13943;SDS011;7044;53.286;8.534;2023-10-09T03:50:37;4.10;;;2.72;;
13943;SDS011;7044;53.286;8.534;2023-10-09T03:53:08;6.00;;;2.90;;
13943;SDS011;7044;53.286;8.534;2023-10-09T03:55:38;5.97;;;3.38;;
13943;SDS011;7044;53.286;8.534;2023-10-09T03:58:07;6.45;;;3.17;;
13943;SDS011;7044;53.286;8.534;2023-10-09T04:00:36;4.50;;;2.55;;
13943;SDS011;7044;53.286;8.534;2023-10-09T04:03:10;5.35;;;3.10;;
13943;SDS011;7044;53.286;8.534;2023-10-09T04:05:40;9.48;;;3.85;;
13943;SDS011;7044;53.286;8.534;2023-10-09T04:08:08;8.15;;;3.00;;
13943;SDS011;7044;53.286;8.534;2023-10-09T04:10:41;8.80;;;3.15;;
13943;SDS011;7044;53.286;8.534;2023-10-09T04:13:17;5.90;;;3.08;;
13943;SDS011;7044;53.286;8.534;2023-10-09T04:15:48;8.38;;;3.70;;
13943;SDS011;7044;53.286;8.534;2023-10-09T04:18:17;7.68;;;3.80;;
13943;SDS011;7044;53.286;8.534;2023-10-09T04:20:47;10.30;;;3.25;;
13943;SDS011;7044;53.286;8.534;2023-10-09T04:23:36;10.88;;;4.15;;
13943;SDS011;7044;53.286;8.534;2023-10-09T04:26:23;12.88;;;4.32;;
13943;SDS011;7044;53.286;8.534;2023-10-09T04:28:50;11.13;;;4.30;;
13943;SDS011;7044;53.286;8.534;2023-10-09T04:31:18;9.05;;;4.82;;
13943;SDS011;7044;53.286;8.534;2023-10-09T04:33:47;10.18;;;4.40;;
13943;SDS011;7044;53.286;8.534;2023-10-09T04:36:41;13.60;;;4.85;;
13943;SDS011;7044;53.286;8.534;2023-10-09T04:39:16;10.00;;;5.07;;
13943;SDS011;7044;53.286;8.534;2023-10-09T04:41:57;7.20;;;4.57;;
13943;SDS011;7044;53.286;8.534;2023-10-09T04:44:38;10.55;;;5.10;;
13943;SDS011;7044;53.286;8.534;2023-10-09T04:47:16;15.30;;;6.15;;
13943;SDS011;7044;53.286;8.534;2023-10-09T04:49:50;8.48;;;5.35;;
13943;SDS011;7044;53.286;8.534;2023-10-09T04:52:28;12.98;;;6.65;;
13943;SDS011;7044;53.286;8.534;2023-10-09T04:55:13;14.57;;;7.22;;
13943;SDS011;7044;53.286;8.534;2023-10-09T04:57:44;13.70;;;7.07;;
13943;SDS011;7044;53.286;8.534;2023-10-09T05:00:12;11.77;;;6.78;;
13943;SDS011;7044;53.286;8.534;2023-10-09T05:03:01;12.23;;;6.55;;
13943;SDS011;7044;53.286;8.534;2023-10-09T05:05:37;13.63;;;7.78;;
13943;SDS011;7044;53.286;8.534;2023-10-09T05:08:25;14.43;;;7.75;;
13943;SDS011;7044;53.286;8.534;2023-10-09T05:10:55;15.98;;;7.63;;
13943;SDS011;7044;53.286;8.534;2023-10-09T05:13:40;10.70;;;7.15;;
13943;SDS011;7044;53.286;8.534;2023-10-09T05:16:22;12.32;;;7.13;;
13943;SDS011;7044;53.286;8.534;2023-10-09T05:18:52;11.52;;;6.82;;
13943;SDS011;7044;53.286;8.534;2023-10-09T05:21:22;13.18;;;6.97;;
13943;SDS011;7044;53.286;8.534;2023-10-09T05:24:02;19.25;;;8.48;;
13943;SDS011;7044;53.286;8.534;2023-10-09T05:26:44;17.10;;;8.38;;
13943;SDS011;7044;53.286;8.534;2023-10-09T05:29:16;18.02;;;9.07;;
13943;SDS011;7044;53.286;8.534;2023-10-09T05:31:59;17.75;;;9.10;;
13943;SDS011;7044;53.286;8.534;2023-10-09T05:34:29;15.15;;;10.23;;
13943;SDS011;7044;53.286;8.534;2023-10-09T05:36:59;20.10;;;10.45;;
13943;SDS011;7044;53.286;8.534;2023-10-09T05:39:43;19.70;;;10.38;;
13943;SDS011;7044;53.286;8.534;2023-10-09T05:42:23;19.30;;;10.48;;
13943;SDS011;7044;53.286;8.534;2023-10-09T05:44:54;19.55;;;10.43;;
13943;SDS011;7044;53.286;8.534;2023-10-09T05:47:39;19.58;;;10.55;;
13943;SDS011;7044;53.286;8.534;2023-10-09T05:50:18;21.00;;;10.85;;
13943;SDS011;7044;53.286;8.534;2023-10-09T05:52:59;18.70;;;10.23;;
13943;SDS011;7044;53.286;8.534;2023-10-09T05:55:34;23.42;;;10.90;;
13943;SDS011;7044;53.286;8.534;2023-10-09T05:58:18;21.77;;;11.15;;
13943;SDS011;7044;53.286;8.534;2023-10-09T06:00:59;20.70;;;10.68;;
13943;SDS011;7044;53.286;8.534;2023-10-09T06:03:46;22.67;;;10.82;;
13943;SDS011;7044;53.286;8.534;2023-10-09T06:06:18;22.50;;;11.15;;
13943;SDS011;7044;53.286;8.534;2023-10-09T06:08:59;19.90;;;9.70;;
13943;SDS011;7044;53.286;8.534;2023-10-09T06:11:55;22.10;;;10.75;;
13943;SDS011;7044;53.286;8.534;2023-10-09T06:14:41;21.55;;;11.27;;
13943;SDS011;7044;53.286;8.534;2023-10-09T06:17:23;23.80;;;12.30;;
13943;SDS011;7044;53.286;8.534;2023-10-09T06:19:49;20.33;;;12.18;;
13943;SDS011;7044;53.286;8.534;2023-10-09T06:22:23;24.30;;;12.02;;
13943;SDS011;7044;53.286;8.534;2023-10-09T06:25:10;25.15;;;12.95;;
13943;SDS011;7044;53.286;8.534;2023-10-09T06:27:39;25.45;;;13.50;;
13943;SDS011;7044;53.286;8.534;2023-10-09T06:30:24;25.65;;;14.07;;
13943;SDS011;7044;53.286;8.534;2023-10-09T06:32:53;26.73;;;14.75;;
13943;SDS011;7044;53.286;8.534;2023-10-09T06:35:44;30.30;;;13.52;;
13943;SDS011;7044;53.286;8.534;2023-10-09T06:38:18;21.50;;;12.13;;
13943;SDS011;7044;53.286;8.534;2023-10-09T06:40:48;25.23;;;12.65;;
13943;SDS011;7044;53.286;8.534;2023-10-09T06:43:43;23.70;;;12.98;;
13943;SDS011;7044;53.286;8.534;2023-10-09T06:46:15;24.33;;;11.80;;
13943;SDS011;7044;53.286;8.534;2023-10-09T06:49:08;24.55;;;11.80;;
13943;SDS011;7044;53.286;8.534;2023-10-09T06:51:54;20.80;;;11.27;;
13943;SDS011;7044;53.286;8.534;2023-10-09T06:54:33;26.17;;;12.88;;
13943;SDS011;7044;53.286;8.534;2023-10-09T06:57:02;26.98;;;12.38;;
13943;SDS011;7044;53.286;8.534;2023-10-09T07:00:03;24.17;;;11.55;;
13943;SDS011;7044;53.286;8.534;2023-10-09T07:02:44;23.88;;;12.23;;
13943;SDS011;7044;53.286;8.534;2023-10-09T07:05:12;33.03;;;13.20;;
13943;SDS011;7044;53.286;8.534;2023-10-09T07:07:42;30.35;;;12.45;;
13943;SDS011;7044;53.286;8.534;2023-10-09T07:10:19;27.92;;;13.20;;
13943;SDS011;7044;53.286;8.534;2023-10-09T07:12:57;30.13;;;13.27;;
13943;SDS011;7044;53.286;8.534;2023-10-09T07:15:28;30.38;;;13.50;;
13943;SDS011;7044;53.286;8.534;2023-10-09T07:18:12;42.72;;;13.82;;
13943;SDS011;7044;53.286;8.534;2023-10-09T07:20:48;28.13;;;12.40;;
13943;SDS011;7044;53.286;8.534;2023-10-09T07:23:26;28.58;;;12.77;;
13943;SDS011;7044;53.286;8.534;2023-10-09T07:26:02;25.17;;;12.73;;
13943;SDS011;7044;53.286;8.534;2023-10-09T07:28:43;27.10;;;13.23;;
13943;SDS011;7044;53.286;8.534;2023-10-09T07:31:18;23.05;;;12.98;;
13943;SDS011;7044;53.286;8.534;2023-10-09T07:33:52;29.00;;;13.77;;
13943;SDS011;7044;53.286;8.534;2023-10-09T07:36:32;35.67;;;15.25;;
13943;SDS011;7044;53.286;8.534;2023-10-09T07:39:03;29.27;;;13.63;;
13943;SDS011;7044;53.286;8.534;2023-10-09T07:41:38;62.38;;;17.02;;
13943;SDS011;7044;53.286;8.534;2023-10-09T07:44:10;26.13;;;12.32;;
13943;SDS011;7044;53.286;8.534;2023-10-09T07:47:01;24.35;;;13.88;;
13943;SDS011;7044;53.286;8.534;2023-10-09T07:49:48;27.83;;;12.75;;
13943;SDS011;7044;53.286;8.534;2023-10-09T07:52:18;22.88;;;13.18;;
13943;SDS011;7044;53.286;8.534;2023-10-09T07:54:47;25.52;;;13.15;;
13943;SDS011;7044;53.286;8.534;2023-10-09T07:57:26;24.20;;;13.32;;
13943;SDS011;7044;53.286;8.534;2023-10-09T07:59:54;26.73;;;14.88;;
13943;SDS011;7044;53.286;8.534;2023-10-09T08:02:28;24.25;;;13.48;;
13943;SDS011;7044;53.286;8.534;2023-10-09T08:04:58;70.65;;;16.15;;
13943;SDS011;7044;53.286;8.534;2023-10-09T08:07:31;22.90;;;13.25;;
13943;SDS011;7044;53.286;8.534;2023-10-09T08:10:02;33.60;;;13.27;;
13943;SDS011;7044;53.286;8.534;2023-10-09T08:12:47;20.85;;;12.80;;
13943;SDS011;7044;53.286;8.534;2023-10-09T08:15:46;19.85;;;12.55;;
13943;SDS011;7044;53.286;8.534;2023-10-09T08:18:20;40.65;;;13.75;;
13943;SDS011;7044;53.286;8.534;2023-10-09T08:20:53;23.35;;;11.68;;
13943;SDS011;7044;53.286;8.534;2023-10-09T08:23:34;21.77;;;10.85;;
13943;SDS011;7044;53.286;8.534;2023-10-09T08:26:13;30.50;;;11.93;;
13943;SDS011;7044;53.286;8.534;2023-10-09T08:28:39;22.90;;;10.13;;
13943;SDS011;7044;53.286;8.534;2023-10-09T08:31:08;19.60;;;10.38;;
13943;SDS011;7044;53.286;8.534;2023-10-09T08:33:45;22.40;;;10.63;;
13943;SDS011;7044;53.286;8.534;2023-10-09T08:36:21;23.65;;;11.07;;
13943;SDS011;7044;53.286;8.534;2023-10-09T08:38:48;27.60;;;10.57;;
13943;SDS011;7044;53.286;8.534;2023-10-09T08:41:14;21.95;;;11.20;;
13943;SDS011;7044;53.286;8.534;2023-10-09T08:43:49;24.17;;;11.63;;
13943;SDS011;7044;53.286;8.534;2023-10-09T08:46:20;24.77;;;11.25;;
13943;SDS011;7044;53.286;8.534;2023-10-09T08:48:49;28.23;;;11.73;;
13943;SDS011;7044;53.286;8.534;2023-10-09T08:51:17;52.53;;;32.42;;
13943;SDS011;7044;53.286;8.534;2023-10-09T08:53:45;27.77;;;14.30;;
13943;SDS011;7044;53.286;8.534;2023-10-09T08:56:12;23.83;;;11.80;;
13943;SDS011;7044;53.286;8.534;2023-10-09T08:58:44;23.80;;;11.52;;
13943;SDS011;7044;53.286;8.534;2023-10-09T09:01:15;30.30;;;12.73;;
13943;SDS011;7044;53.286;8.534;2023-10-09T09:03:44;23.05;;;11.77;;
13943;SDS011;7044;53.286;8.534;2023-10-09T09:06:13;19.90;;;10.50;;
13943;SDS011;7044;53.286;8.534;2023-10-09T09:08:40;21.58;;;11.93;;
13943;SDS011;7044;53.286;8.534;2023-10-09T09:11:10;26.42;;;11.38;;
13943;SDS011;7044;53.286;8.534;2023-10-09T09:13:40;26.60;;;11.20;;
13943;SDS011;7044;53.286;8.534;2023-10-09T09:16:13;24.83;;;10.55;;
13943;SDS011;7044;53.286;8.534;2023-10-09T09:18:50;20.73;;;10.60;;
13943;SDS011;7044;53.286;8.534;2023-10-09T09:21:27;21.73;;;10.05;;
13943;SDS011;7044;53.286;8.534;2023-10-09T09:23:58;64.75;;;14.10;;
13943;SDS011;7044;53.286;8.534;2023-10-09T09:26:33;27.67;;;10.38;;
13943;SDS011;7044;53.286;8.534;2023-10-09T09:29:03;34.75;;;11.18;;
13943;SDS011;7044;53.286;8.534;2023-10-09T09:31:31;21.45;;;10.15;;
13943;SDS011;7044;53.286;8.534;2023-10-09T09:34:03;17.30;;;10.15;;
13943;SDS011;7044;53.286;8.534;2023-10-09T09:36:53;41.50;;;10.85;;
13943;SDS011;7044;53.286;8.534;2023-10-09T09:39:21;24.80;;;9.88;;
13943;SDS011;7044;53.286;8.534;2023-10-09T09:41:54;20.33;;;9.38;;
13943;SDS011;7044;53.286;8.534;2023-10-09T09:44:23;22.60;;;9.73;;
13943;SDS011;7044;53.286;8.534;2023-10-09T09:46:55;17.45;;;9.25;;
13943;SDS011;7044;53.286;8.534;2023-10-09T09:49:24;26.67;;;9.52;;
13943;SDS011;7044;53.286;8.534;2023-10-09T09:51:58;19.67;;;8.73;;
13943;SDS011;7044;53.286;8.534;2023-10-09T09:54:28;19.10;;;9.43;;
13943;SDS011;7044;53.286;8.534;2023-10-09T09:56:58;13.70;;;7.88;;
13943;SDS011;7044;53.286;8.534;2023-10-09T09:59:33;16.23;;;8.10;;
13943;SDS011;7044;53.286;8.534;2023-10-09T10:02:15;23.55;;;8.93;;
13943;SDS011;7044;53.286;8.534;2023-10-09T10:04:48;11.07;;;7.05;;
13943;SDS011;7044;53.286;8.534;2023-10-09T10:07:21;25.88;;;7.80;;
13943;SDS011;7044;53.286;8.534;2023-10-09T10:09:50;13.45;;;7.45;;
13943;SDS011;7044;53.286;8.534;2023-10-09T10:12:49;25.52;;;7.60;;
13943;SDS011;7044;53.286;8.534;2023-10-09T10:18:22;26.23;;;8.18;;
13943;SDS011;7044;53.286;8.534;2023-10-09T10:21:09;15.27;;;6.25;;
13943;SDS011;7044;53.286;8.534;2023-10-09T10:23:42;13.88;;;6.82;;
13943;SDS011;7044;53.286;8.534;2023-10-09T10:26:18;16.52;;;6.60;;
13943;SDS011;7044;53.286;8.534;2023-10-09T10:31:51;15.93;;;6.25;;
13943;SDS011;7044;53.286;8.534;2023-10-09T10:34:21;13.43;;;5.50;;
13943;SDS011;7044;53.286;8.534;2023-10-09T10:36:49;39.28;;;7.07;;
13943;SDS011;7044;53.286;8.534;2023-10-09T10:39:19;17.08;;;6.20;;
13943;SDS011;7044;53.286;8.534;2023-10-09T10:42:00;12.95;;;5.75;;
13943;SDS011;7044;53.286;8.534;2023-10-09T10:44:30;17.52;;;9.00;;
13943;SDS011;7044;53.286;8.534;2023-10-09T10:47:07;19.55;;;9.32;;
13943;SDS011;7044;53.286;8.534;2023-10-09T10:49:47;11.07;;;6.03;;
13943;SDS011;7044;53.286;8.534;2023-10-09T10:52:20;8.93;;;6.00;;
13943;SDS011;7044;53.286;8.534;2023-10-09T10:54:48;11.45;;;5.47;;
13943;SDS011;7044;53.286;8.534;2023-10-09T10:57:29;9.00;;;4.88;;
13943;SDS011;7044;53.286;8.534;2023-10-09T11:00:18;7.68;;;4.85;;
13943;SDS011;7044;53.286;8.534;2023-10-09T11:02:59;11.10;;;6.03;;
13943;SDS011;7044;53.286;8.534;2023-10-09T11:05:39;6.88;;;4.55;;
13943;SDS011;7044;53.286;8.534;2023-10-09T11:08:08;6.05;;;3.95;;
13943;SDS011;7044;53.286;8.534;2023-10-09T11:10:37;8.70;;;4.43;;
13943;SDS011;7044;53.286;8.534;2023-10-09T11:13:20;6.10;;;3.67;;
13943;SDS011;7044;53.286;8.534;2023-10-09T11:15:58;6.97;;;3.10;;
13943;SDS011;7044;53.286;8.534;2023-10-09T11:18:39;4.10;;;2.72;;
13943;SDS011;7044;53.286;8.534;2023-10-09T11:21:09;6.13;;;3.05;;
13943;SDS011;7044;53.286;8.534;2023-10-09T11:23:54;6.20;;;2.97;;
13943;SDS011;7044;53.286;8.534;2023-10-09T11:26:26;6.88;;;3.25;;
13943;SDS011;7044;53.286;8.534;2023-10-09T11:32:01;11.13;;;3.40;;
13943;SDS011;7044;53.286;8.534;2023-10-09T11:34:30;2.92;;;2.45;;
13943;SDS011;7044;53.286;8.534;2023-10-09T11:37:00;5.30;;;2.50;;
13943;SDS011;7044;53.286;8.534;2023-10-09T11:39:28;4.30;;;2.80;;
13943;SDS011;7044;53.286;8.534;2023-10-09T11:42:03;9.55;;;3.13;;
13943;SDS011;7044;53.286;8.534;2023-10-09T11:44:37;8.15;;;3.20;;
13943;SDS011;7044;53.286;8.534;2023-10-09T11:47:06;5.57;;;2.90;;
13943;SDS011;7044;53.286;8.534;2023-10-09T11:49:50;9.77;;;3.00;;
13943;SDS011;7044;53.286;8.534;2023-10-09T11:52:36;5.22;;;2.55;;
13943;SDS011;7044;53.286;8.534;2023-10-09T11:55:21;7.57;;;2.85;;
13943;SDS011;7044;53.286;8.534;2023-10-09T11:57:51;6.43;;;3.15;;
13943;SDS011;7044;53.286;8.534;2023-10-09T12:00:18;10.93;;;3.80;;
13943;SDS011;7044;53.286;8.534;2023-10-09T12:02:54;4.25;;;2.63;;
13943;SDS011;7044;53.286;8.534;2023-10-09T12:05:21;5.68;;;2.90;;
13943;SDS011;7044;53.286;8.534;2023-10-09T12:07:49;6.65;;;2.70;;
13943;SDS011;7044;53.286;8.534;2023-10-09T12:10:19;8.90;;;2.83;;
13943;SDS011;7044;53.286;8.534;2023-10-09T12:12:51;5.88;;;2.50;;
13943;SDS011;7044;53.286;8.534;2023-10-09T12:15:18;6.50;;;2.95;;
13943;SDS011;7044;53.286;8.534;2023-10-09T12:17:46;8.00;;;2.55;;
13943;SDS011;7044;53.286;8.534;2023-10-09T12:20:13;6.20;;;2.55;;
13943;SDS011;7044;53.286;8.534;2023-10-09T12:22:55;9.63;;;2.65;;
13943;SDS011;7044;53.286;8.534;2023-10-09T12:25:23;7.53;;;2.67;;
13943;SDS011;7044;53.286;8.534;2023-10-09T12:27:51;5.75;;;2.03;;
13943;SDS011;7044;53.286;8.534;2023-10-09T12:30:22;8.48;;;3.03;;
13943;SDS011;7044;53.286;8.534;2023-10-09T12:32:53;4.80;;;2.25;;
13943;SDS011;7044;53.286;8.534;2023-10-09T12:35:20;5.50;;;2.28;;
13943;SDS011;7044;53.286;8.534;2023-10-09T12:37:48;6.25;;;3.10;;
13943;SDS011;7044;53.286;8.534;2023-10-09T12:40:15;5.28;;;2.20;;
13943;SDS011;7044;53.286;8.534;2023-10-09T12:42:49;7.57;;;2.40;;
13943;SDS011;7044;53.286;8.534;2023-10-09T12:45:19;10.30;;;2.45;;
13943;SDS011;7044;53.286;8.534;2023-10-09T12:47:51;4.50;;;2.22;;
13943;SDS011;7044;53.286;8.534;2023-10-09T12:50:19;5.53;;;2.53;;
13943;SDS011;7044;53.286;8.534;2023-10-09T12:52:52;7.25;;;2.55;;
13943;SDS011;7044;53.286;8.534;2023-10-09T12:55:20;6.18;;;2.00;;
13943;SDS011;7044;53.286;8.534;2023-10-09T12:57:47;7.15;;;2.70;;
13943;SDS011;7044;53.286;8.534;2023-10-09T13:00:18;5.38;;;2.10;;
13943;SDS011;7044;53.286;8.534;2023-10-09T13:02:50;5.05;;;2.50;;
13943;SDS011;7044;53.286;8.534;2023-10-09T13:05:17;5.43;;;2.00;;
13943;SDS011;7044;53.286;8.534;2023-10-09T13:07:51;3.75;;;1.85;;
13943;SDS011;7044;53.286;8.534;2023-10-09T13:10:18;10.90;;;2.33;;
13943;SDS011;7044;53.286;8.534;2023-10-09T13:12:45;8.95;;;2.85;;
13943;SDS011;7044;53.286;8.534;2023-10-09T13:15:21;8.77;;;2.38;;
13943;SDS011;7044;53.286;8.534;2023-10-09T13:17:48;5.85;;;2.13;;
13943;SDS011;7044;53.286;8.534;2023-10-09T13:20:18;6.97;;;2.17;;
13943;SDS011;7044;53.286;8.534;2023-10-09T13:22:46;4.32;;;2.05;;
13943;SDS011;7044;53.286;8.534;2023-10-09T13:25:14;4.43;;;1.63;;
13943;SDS011;7044;53.286;8.534;2023-10-09T13:27:42;4.25;;;2.05;;
13943;SDS011;7044;53.286;8.534;2023-10-09T13:30:15;4.78;;;1.80;;
13943;SDS011;7044;53.286;8.534;2023-10-09T13:32:48;3.22;;;1.77;;
13943;SDS011;7044;53.286;8.534;2023-10-09T13:35:16;5.88;;;2.67;;
13943;SDS011;7044;53.286;8.534;2023-10-09T13:37:44;6.70;;;2.15;;
13943;SDS011;7044;53.286;8.534;2023-10-09T13:40:19;6.35;;;1.90;;
13943;SDS011;7044;53.286;8.534;2023-10-09T13:42:52;4.55;;;1.67;;
13943;SDS011;7044;53.286;8.534;2023-10-09T13:45:23;7.88;;;2.30;;
13943;SDS011;7044;53.286;8.534;2023-10-09T13:47:53;4.78;;;1.92;;
13943;SDS011;7044;53.286;8.534;2023-10-09T13:50:23;5.20;;;1.80;;
13943;SDS011;7044;53.286;8.534;2023-10-09T13:52:54;2.70;;;1.98;;
13943;SDS011;7044;53.286;8.534;2023-10-09T13:55:21;9.07;;;1.92;;
13943;SDS011;7044;53.286;8.534;2023-10-09T13:57:56;4.72;;;1.92;;
13943;SDS011;7044;53.286;8.534;2023-10-09T14:00:23;5.18;;;2.08;;
13943;SDS011;7044;53.286;8.534;2023-10-09T14:03:00;6.60;;;2.30;;
13943;SDS011;7044;53.286;8.534;2023-10-09T14:05:36;4.75;;;1.73;;
13943;SDS011;7044;53.286;8.534;2023-10-09T14:08:17;5.82;;;1.77;;
13943;SDS011;7044;53.286;8.534;2023-10-09T14:10:47;6.70;;;2.00;;
13943;SDS011;7044;53.286;8.534;2023-10-09T14:13:14;5.43;;;1.67;;
13943;SDS011;7044;53.286;8.534;2023-10-09T14:15:42;7.97;;;2.25;;
13943;SDS011;7044;53.286;8.534;2023-10-09T14:18:12;8.85;;;2.03;;
13943;SDS011;7044;53.286;8.534;2023-10-09T14:20:40;3.10;;;1.45;;
13943;SDS011;7044;53.286;8.534;2023-10-09T14:23:08;3.55;;;1.33;;
13943;SDS011;7044;53.286;8.534;2023-10-09T14:25:37;5.55;;;1.40;;
13943;SDS011;7044;53.286;8.534;2023-10-09T14:28:05;9.95;;;1.80;;
13943;SDS011;7044;53.286;8.534;2023-10-09T14:30:33;7.55;;;1.98;;
13943;SDS011;7044;53.286;8.534;2023-10-09T14:33:07;5.60;;;1.60;;
13943;SDS011;7044;53.286;8.534;2023-10-09T14:35:38;6.75;;;1.60;;
13943;SDS011;7044;53.286;8.534;2023-10-09T14:38:06;6.10;;;1.30;;
13943;SDS011;7044;53.286;8.534;2023-10-09T14:40:37;5.53;;;1.45;;
13943;SDS011;7044;53.286;8.534;2023-10-09T14:43:06;2.40;;;1.27;;
13943;SDS011;7044;53.286;8.534;2023-10-09T14:45:41;3.25;;;1.50;;
13943;SDS011;7044;53.286;8.534;2023-10-09T14:48:08;3.08;;;1.08;;
13943;SDS011;7044;53.286;8.534;2023-10-09T14:50:36;6.35;;;1.58;;
13943;SDS011;7044;53.286;8.534;2023-10-09T14:53:12;4.68;;;1.70;;
13943;SDS011;7044;53.286;8.534;2023-10-09T14:55:40;1.85;;;1.50;;
13943;SDS011;7044;53.286;8.534;2023-10-09T14:58:10;3.65;;;1.33;;
13943;SDS011;7044;53.286;8.534;2023-10-09T15:00:37;4.32;;;1.38;;
13943;SDS011;7044;53.286;8.534;2023-10-09T15:03:11;1.30;;;0.82;;
13943;SDS011;7044;53.286;8.534;2023-10-09T15:05:41;2.13;;;1.23;;
13943;SDS011;7044;53.286;8.534;2023-10-09T15:08:08;1.88;;;1.17;;
13943;SDS011;7044;53.286;8.534;2023-10-09T15:10:36;2.05;;;0.95;;
13943;SDS011;7044;53.286;8.534;2023-10-09T15:13:10;4.88;;;1.13;;
13943;SDS011;7044;53.286;8.534;2023-10-09T15:15:39;3.72;;;1.00;;
13943;SDS011;7044;53.286;8.534;2023-10-09T15:18:07;4.20;;;1.30;;
13943;SDS011;7044;53.286;8.534;2023-10-09T15:20:37;6.18;;;1.25;;
13943;SDS011;7044;53.286;8.534;2023-10-09T15:23:06;6.80;;;1.23;;
13943;SDS011;7044;53.286;8.534;2023-10-09T15:25:33;4.13;;;1.20;;
13943;SDS011;7044;53.286;8.534;2023-10-09T15:28:04;2.10;;;0.90;;
13943;SDS011;7044;53.286;8.534;2023-10-09T15:30:32;1.75;;;1.00;;
13943;SDS011;7044;53.286;8.534;2023-10-09T15:32:59;6.18;;;1.35;;
13943;SDS011;7044;53.286;8.534;2023-10-09T15:35:27;5.53;;;1.10;;
13943;SDS011;7044;53.286;8.534;2023-10-09T15:37:54;2.97;;;0.90;;